createdAt,value
2017-07-04T00:02:17.851Z,3.07
2017-07-04T00:04:46.124Z,2.70
2017-07-04T00:07:14.408Z,2.63
2017-07-04T00:09:42.728Z,3.10
2017-07-04T00:12:11.747Z,2.90
2017-07-04T00:14:40.047Z,3.43
2017-07-04T00:17:08.304Z,2.40
2017-07-04T00:19:36.603Z,2.83
2017-07-04T00:22:04.836Z,2.73
2017-07-04T00:24:33.104Z,3.60
2017-07-04T00:27:02.148Z,3.60
2017-07-04T00:29:30.401Z,2.90
2017-07-04T00:31:58.669Z,3.20
2017-07-04T00:34:27.775Z,3.40
2017-07-04T00:36:56.065Z,3.43
2017-07-04T00:39:24.394Z,3.10
2017-07-04T00:41:52.645Z,3.93
2017-07-04T00:44:20.947Z,3.97
2017-07-04T00:46:50.006Z,3.60
2017-07-04T00:49:18.275Z,2.80
2017-07-04T00:51:46.560Z,3.67
2017-07-04T00:54:15.032Z,2.90
2017-07-04T00:56:43.305Z,5.33
2017-07-04T00:59:11.559Z,6.20
2017-07-04T01:01:39.885Z,5.70
2017-07-04T01:04:08.125Z,6.37
2017-07-04T01:06:36.460Z,6.40
2017-07-04T01:09:04.727Z,7.03
2017-07-04T01:11:32.983Z,7.83
2017-07-04T01:14:01.271Z,6.90
2017-07-04T01:16:29.567Z,8.00
2017-07-04T01:18:59.695Z,6.97
2017-07-04T01:21:28.107Z,7.13
2017-07-04T01:23:56.543Z,6.23
2017-07-04T01:26:24.804Z,6.43
2017-07-04T01:28:53.089Z,5.97
2017-07-04T01:31:21.405Z,5.20
2017-07-04T01:33:49.751Z,5.53
2017-07-04T01:36:18.005Z,4.53
2017-07-04T01:38:46.296Z,5.47
2017-07-04T01:41:14.558Z,4.73
2017-07-04T01:43:42.800Z,5.07
2017-07-04T01:46:11.070Z,5.30
2017-07-04T01:48:39.373Z,5.53
2017-07-04T01:51:07.655Z,5.53
2017-07-04T01:53:35.941Z,5.57
2017-07-04T01:56:04.202Z,6.60
2017-07-04T01:58:32.462Z,5.80
2017-07-04T02:01:00.878Z,6.50
2017-07-04T02:03:29.116Z,5.60
2017-07-04T02:05:57.393Z,6.00
2017-07-04T02:08:25.676Z,5.43
2017-07-04T02:10:53.940Z,5.77
2017-07-04T02:13:22.207Z,6.23
2017-07-04T02:15:50.672Z,5.20
2017-07-04T02:18:18.908Z,6.27
2017-07-04T02:20:47.176Z,6.47
2017-07-04T02:23:15.453Z,6.70
2017-07-04T02:25:43.763Z,6.70
2017-07-04T02:28:12.779Z,5.83
2017-07-04T02:30:41.074Z,7.27
2017-07-04T02:33:09.323Z,8.20
2017-07-04T02:35:37.580Z,6.30
2017-07-04T02:38:06.411Z,4.60
2017-07-04T02:40:34.657Z,4.43
2017-07-04T02:43:03.699Z,7.00
2017-07-04T02:45:31.973Z,4.30
2017-07-04T02:48:01.053Z,4.23
2017-07-04T02:50:29.296Z,6.43
2017-07-04T02:52:58.340Z,7.23
2017-07-04T02:55:26.624Z,7.27
2017-07-04T02:57:54.887Z,7.00
2017-07-04T03:00:23.172Z,6.40
2017-07-04T03:02:52.269Z,5.20
2017-07-04T03:05:20.530Z,5.50
2017-07-04T03:07:48.839Z,5.80
2017-07-04T03:10:17.239Z,7.43
2017-07-04T03:12:45.642Z,6.37
2017-07-04T03:15:14.640Z,4.93
2017-07-04T03:17:42.892Z,5.73
2017-07-04T03:20:11.956Z,6.43
2017-07-04T03:22:40.221Z,5.63
2017-07-04T03:25:08.671Z,6.00
2017-07-04T03:27:36.951Z,5.53
2017-07-04T03:30:05.223Z,6.47
2017-07-04T03:32:33.484Z,5.37
2017-07-04T03:35:02.671Z,6.07
2017-07-04T03:37:31.705Z,6.17
2017-07-04T03:39:59.950Z,5.20
2017-07-04T03:42:28.984Z,5.90
2017-07-04T03:44:57.257Z,6.30
2017-07-04T03:47:25.522Z,5.90
2017-07-04T03:49:53.786Z,6.30
2017-07-04T03:52:22.040Z,6.33
2017-07-04T03:54:51.064Z,5.80
2017-07-04T03:57:19.312Z,6.07
2017-07-04T03:59:48.352Z,5.73
2017-07-04T04:02:16.629Z,6.40
2017-07-04T04:04:44.903Z,6.30
2017-07-04T04:07:13.168Z,5.67
2017-07-04T04:09:41.479Z,7.40
2017-07-04T04:12:09.759Z,6.67
2017-07-04T04:14:38.139Z,6.37
2017-07-04T04:17:06.388Z,6.40
2017-07-04T04:19:34.640Z,6.80
2017-07-04T04:22:02.907Z,7.73
2017-07-04T04:24:31.212Z,6.90
2017-07-04T04:26:59.483Z,7.10
2017-07-04T04:29:27.742Z,7.47
2017-07-04T04:31:56.764Z,7.73
2017-07-04T04:34:25.039Z,7.50
2017-07-04T04:36:53.303Z,8.43
2017-07-04T04:39:21.554Z,8.60
2017-07-04T04:41:50.583Z,8.87
2017-07-04T04:44:18.875Z,7.03
2017-07-04T04:46:47.140Z,7.03
2017-07-04T04:49:15.455Z,8.20
2017-07-04T04:51:43.867Z,7.83
2017-07-04T04:54:12.219Z,7.10
2017-07-04T04:56:41.422Z,7.90
2017-07-04T04:59:11.719Z,8.00
2017-07-04T05:01:40.998Z,7.80
2017-07-04T05:04:09.274Z,7.23
2017-07-04T05:06:37.703Z,7.07
2017-07-04T05:09:05.927Z,6.93
2017-07-04T05:11:34.206Z,6.53
2017-07-04T05:14:02.464Z,7.17
2017-07-04T05:16:30.726Z,8.07
2017-07-04T05:18:59.135Z,11.00
2017-07-04T05:21:27.484Z,8.13
2017-07-04T05:23:55.762Z,8.00
2017-07-04T05:26:24.341Z,7.47
2017-07-04T05:28:52.640Z,7.00
2017-07-04T05:31:20.952Z,7.43
2017-07-04T05:33:50.133Z,8.77
2017-07-04T05:36:18.396Z,9.20
2017-07-04T05:38:46.687Z,8.03
2017-07-04T05:41:14.963Z,8.60
2017-07-04T05:43:43.256Z,8.20
2017-07-04T05:46:11.585Z,10.37
2017-07-04T05:48:39.867Z,9.30
2017-07-04T05:51:08.134Z,8.50
2017-07-04T05:53:37.155Z,9.17
2017-07-04T05:56:05.431Z,8.63
2017-07-04T05:58:33.711Z,9.13
2017-07-04T06:01:02.088Z,10.57
2017-07-04T06:03:30.367Z,9.60
2017-07-04T06:05:58.686Z,10.13
2017-07-04T06:08:27.180Z,9.70
2017-07-04T06:10:56.206Z,10.88
2017-07-04T06:13:24.515Z,10.37
2017-07-04T06:15:52.799Z,8.60
2017-07-04T06:18:21.085Z,10.73
2017-07-04T06:20:49.348Z,9.20
2017-07-04T06:23:17.625Z,10.60
2017-07-04T06:25:46.057Z,9.97
2017-07-04T06:28:15.100Z,10.60
2017-07-04T06:30:44.360Z,11.67
2017-07-04T06:33:12.624Z,13.00
2017-07-04T06:35:40.943Z,16.03
2017-07-04T06:38:13.599Z,15.10
2017-07-04T06:40:41.904Z,12.53
2017-07-04T06:43:10.172Z,12.80
2017-07-04T06:45:39.510Z,11.53
2017-07-04T06:48:07.782Z,12.43
2017-07-04T06:50:36.072Z,12.30
2017-07-04T06:53:05.139Z,12.23
2017-07-04T06:55:33.431Z,14.37
2017-07-04T06:58:02.508Z,13.60
2017-07-04T07:00:30.987Z,12.37
2017-07-04T07:03:00.046Z,12.90
2017-07-04T07:05:28.320Z,12.30
2017-07-04T07:07:57.446Z,12.57
2017-07-04T07:10:25.708Z,12.17
2017-07-04T07:12:53.973Z,12.33
2017-07-04T07:15:22.336Z,14.73
2017-07-04T07:17:50.609Z,19.03
2017-07-04T07:20:18.898Z,16.90
2017-07-04T07:22:47.190Z,17.50
2017-07-04T07:25:15.471Z,18.93
2017-07-04T07:27:43.889Z,16.97
2017-07-04T07:30:12.271Z,17.83
2017-07-04T07:32:41.142Z,18.27
2017-07-04T07:35:09.449Z,17.60
2017-07-04T07:37:38.529Z,18.07
2017-07-04T07:40:06.855Z,16.50
2017-07-04T07:42:35.171Z,16.47
2017-07-04T07:45:03.454Z,18.33
2017-07-04T07:47:31.817Z,19.13
2017-07-04T07:50:00.223Z,18.47
2017-07-04T07:52:28.505Z,17.00
2017-07-04T07:54:56.818Z,15.60
2017-07-04T07:57:25.219Z,14.77
2017-07-04T07:59:54.336Z,13.80
2017-07-04T08:02:22.640Z,14.33
2017-07-04T08:04:51.079Z,17.20
2017-07-04T08:07:19.403Z,14.10
2017-07-04T08:09:47.865Z,13.70
2017-07-04T08:12:16.143Z,13.20
2017-07-04T08:14:44.407Z,14.60
2017-07-04T08:17:12.737Z,14.57
2017-07-04T08:19:41.023Z,14.13
2017-07-04T08:22:09.326Z,15.23
2017-07-04T08:24:37.612Z,12.73
2017-07-04T08:27:05.910Z,14.30
2017-07-04T08:29:34.967Z,13.40
2017-07-04T08:32:03.240Z,12.43
2017-07-04T08:34:31.508Z,11.53
2017-07-04T08:36:59.798Z,12.23
2017-07-04T08:39:28.062Z,13.20
2017-07-04T08:41:57.317Z,12.00
2017-07-04T08:44:25.769Z,13.37
2017-07-04T08:46:54.696Z,11.97
2017-07-04T08:49:23.009Z,11.90
2017-07-04T08:51:51.269Z,11.00
2017-07-04T08:54:19.523Z,11.77
2017-07-04T08:56:47.894Z,12.37
2017-07-04T08:59:16.911Z,12.40
2017-07-04T09:01:45.206Z,11.40
2017-07-04T09:04:14.338Z,11.70
2017-07-04T09:06:42.612Z,11.00
2017-07-04T09:09:10.913Z,12.10
2017-07-04T09:11:39.925Z,11.20
2017-07-04T09:14:08.192Z,11.93
2017-07-04T09:16:36.507Z,11.70
2017-07-04T09:19:04.742Z,11.97
2017-07-04T09:21:33.007Z,10.87
2017-07-04T09:24:01.303Z,11.50
2017-07-04T09:26:29.617Z,13.10
2017-07-04T09:28:57.935Z,11.70
2017-07-04T09:31:26.187Z,12.10
2017-07-04T09:33:54.533Z,10.50
2017-07-04T09:36:22.820Z,12.93
2017-07-04T09:38:51.138Z,14.43
2017-07-04T09:41:19.433Z,14.13
2017-07-04T09:43:47.708Z,12.53
2017-07-04T09:46:16.030Z,12.17
2017-07-04T09:48:44.342Z,12.20
2017-07-04T09:51:12.628Z,10.40
2017-07-04T09:53:41.056Z,12.23
2017-07-04T09:56:09.376Z,9.73
2017-07-04T09:58:37.696Z,11.67
2017-07-04T10:01:06.012Z,10.80
2017-07-04T10:03:34.323Z,10.93
2017-07-04T10:06:02.696Z,11.80
2017-07-04T10:08:30.967Z,9.83
2017-07-04T10:10:59.357Z,10.20
2017-07-04T10:13:28.382Z,9.03
2017-07-04T10:15:56.671Z,9.00
2017-07-04T10:18:24.986Z,10.30
2017-07-04T10:20:54.194Z,10.80
2017-07-04T10:23:22.467Z,11.00
2017-07-04T10:25:50.732Z,10.37
2017-07-04T10:28:19.025Z,9.47
2017-07-04T10:30:47.278Z,9.67
2017-07-04T10:33:15.561Z,8.60
2017-07-04T10:35:43.933Z,8.27
2017-07-04T10:38:12.210Z,9.13
2017-07-04T10:40:40.533Z,10.23
2017-07-04T10:43:08.845Z,9.50
2017-07-04T10:45:37.133Z,9.67
2017-07-04T10:48:05.401Z,11.40
2017-07-04T10:50:33.675Z,10.60
2017-07-04T10:53:01.956Z,12.00
2017-07-04T10:55:30.251Z,10.47
2017-07-04T10:57:58.589Z,10.57
2017-07-04T11:00:26.877Z,10.23
2017-07-04T11:02:55.176Z,10.20
2017-07-04T11:05:23.501Z,11.60
2017-07-04T11:07:52.091Z,10.83
2017-07-04T11:10:20.542Z,10.60
2017-07-04T11:12:48.829Z,10.33
2017-07-04T11:15:17.179Z,13.37
2017-07-04T11:17:45.632Z,9.50
2017-07-04T11:20:13.903Z,10.07
2017-07-04T11:22:42.207Z,10.03
2017-07-04T11:25:10.544Z,9.63
2017-07-04T11:27:38.910Z,9.17
2017-07-04T11:30:07.345Z,11.40
2017-07-04T11:32:36.749Z,9.43
2017-07-04T11:35:05.410Z,10.80
2017-07-04T11:37:34.082Z,8.73
2017-07-04T11:40:02.842Z,10.50
2017-07-04T11:42:31.171Z,8.73
2017-07-04T11:44:59.466Z,10.93
2017-07-04T11:47:27.741Z,8.50
2017-07-04T11:49:56.005Z,8.97
2017-07-04T11:52:24.288Z,8.70
2017-07-04T11:54:52.597Z,9.20
2017-07-04T11:57:20.872Z,9.57
2017-07-04T11:59:49.149Z,17.37
2017-07-04T12:02:17.420Z,17.47
2017-07-04T12:04:45.774Z,14.90
2017-07-04T12:07:14.036Z,17.20
2017-07-04T12:09:42.347Z,16.47
2017-07-04T12:12:10.625Z,16.20
2017-07-04T12:14:39.885Z,15.70
2017-07-04T12:17:08.948Z,15.20
2017-07-04T12:19:37.212Z,15.50
2017-07-04T12:22:05.566Z,15.90
2017-07-04T12:24:33.909Z,16.17
2017-07-04T12:27:03.051Z,16.43
2017-07-04T12:29:31.357Z,17.30
2017-07-04T12:32:00.269Z,16.73
2017-07-04T12:34:29.328Z,16.57
2017-07-04T12:36:57.629Z,14.20
2017-07-04T12:39:26.100Z,16.43
2017-07-04T12:41:54.748Z,16.60
2017-07-04T12:44:23.105Z,17.70
2017-07-04T12:46:51.372Z,15.00
2017-07-04T12:49:19.650Z,12.90
2017-07-04T12:51:48.055Z,14.07
2017-07-04T12:54:16.364Z,13.07
2017-07-04T12:56:44.810Z,14.03
2017-07-04T12:59:13.110Z,14.53
2017-07-04T13:01:41.398Z,11.77
2017-07-04T13:04:09.664Z,15.63
2017-07-04T13:06:37.927Z,13.97
2017-07-04T13:09:06.209Z,15.23
2017-07-04T13:11:34.604Z,13.50
2017-07-04T13:14:03.785Z,14.87
2017-07-04T13:16:33.316Z,15.37
2017-07-04T13:19:01.632Z,14.13
2017-07-04T13:21:30.686Z,15.20
2017-07-04T13:23:59.001Z,16.60
2017-07-04T13:26:27.301Z,13.10
2017-07-04T13:28:55.647Z,14.47
2017-07-04T13:31:23.929Z,14.50
2017-07-04T13:33:52.213Z,14.93
2017-07-04T13:36:20.585Z,13.73
2017-07-04T13:38:48.889Z,16.33
2017-07-04T13:41:17.198Z,14.93
2017-07-04T13:43:45.507Z,14.27
2017-07-04T13:46:14.979Z,13.50
2017-07-04T13:48:43.303Z,12.10
2017-07-04T13:51:11.575Z,14.57
2017-07-04T13:53:40.619Z,13.00
2017-07-04T13:56:08.906Z,14.40
2017-07-04T13:58:37.190Z,13.00
2017-07-04T14:01:05.518Z,14.20
2017-07-04T14:03:34.386Z,14.07
2017-07-04T14:06:02.700Z,14.10
2017-07-04T14:08:31.000Z,15.33
2017-07-04T14:10:59.309Z,15.60
2017-07-04T14:16:24.988Z,13.47
2017-07-04T14:18:53.282Z,14.53
2017-07-04T14:21:21.555Z,16.03
2017-07-04T14:23:49.868Z,15.00
2017-07-04T14:26:18.171Z,14.27
2017-07-04T14:28:47.290Z,15.90
2017-07-04T14:34:15.855Z,14.27
2017-07-04T14:36:44.345Z,13.50
2017-07-04T14:39:12.622Z,14.53
2017-07-04T14:41:41.683Z,14.23
2017-07-04T14:44:09.976Z,15.03
2017-07-04T14:46:38.274Z,14.30
2017-07-04T14:49:06.767Z,15.80
2017-07-04T14:51:35.063Z,14.20
2017-07-04T14:54:03.337Z,15.30
2017-07-04T14:56:31.648Z,13.70
2017-07-04T14:58:59.955Z,14.30
2017-07-04T15:01:28.276Z,11.73
2017-07-04T15:03:57.055Z,13.10
2017-07-04T15:06:26.130Z,14.17
2017-07-04T15:08:54.468Z,12.73
2017-07-04T15:11:22.748Z,13.37
2017-07-04T15:13:51.164Z,10.90
2017-07-04T15:16:20.245Z,11.60
2017-07-04T15:18:48.559Z,12.67
2017-07-04T15:21:21.164Z,12.70
2017-07-04T15:23:49.434Z,14.07
2017-07-04T15:26:17.750Z,14.70
2017-07-04T15:28:46.093Z,13.27
2017-07-04T15:31:14.425Z,14.20
2017-07-04T15:33:42.710Z,15.17
2017-07-04T15:36:10.990Z,15.80
2017-07-04T15:38:39.319Z,14.70
2017-07-04T15:41:07.628Z,12.07
2017-07-04T15:43:36.717Z,14.10
2017-07-04T15:46:05.100Z,12.83
2017-07-04T15:48:33.415Z,13.70
2017-07-04T15:51:02.699Z,13.17
2017-07-04T15:53:31.056Z,13.50
2017-07-04T15:55:59.446Z,12.50
2017-07-04T15:58:27.763Z,14.63
2017-07-04T16:00:56.068Z,13.43
2017-07-04T16:03:24.475Z,13.57
2017-07-04T16:05:52.710Z,14.83
2017-07-04T16:08:20.993Z,14.90
2017-07-04T16:10:49.304Z,16.83
2017-07-04T16:13:17.584Z,14.27
2017-07-04T16:15:45.925Z,15.27
2017-07-04T16:18:14.275Z,13.13
2017-07-04T16:20:42.602Z,16.60
2017-07-04T16:23:10.896Z,14.77
2017-07-04T16:25:39.277Z,14.67
2017-07-04T16:28:07.535Z,13.97
2017-07-04T16:30:35.871Z,13.77
2017-07-04T16:33:04.228Z,12.57
2017-07-04T16:35:32.536Z,14.60
2017-07-04T16:38:00.872Z,13.63
2017-07-04T16:40:29.239Z,15.00
2017-07-04T16:42:57.545Z,16.13
2017-07-04T16:45:25.888Z,14.57
2017-07-04T16:47:54.282Z,13.80
2017-07-04T16:50:22.551Z,13.60
2017-07-04T16:52:50.891Z,13.20
2017-07-04T16:55:19.419Z,14.70
2017-07-04T16:57:47.700Z,13.50
2017-07-04T17:00:16.046Z,13.40
2017-07-04T17:02:46.345Z,14.60
2017-07-04T17:05:14.970Z,14.70
2017-07-04T17:07:43.293Z,13.13
2017-07-04T17:10:11.706Z,12.30
2017-07-04T17:12:40.006Z,11.83
2017-07-04T17:15:08.315Z,13.23
2017-07-04T17:17:36.664Z,14.13
2017-07-04T17:20:04.983Z,12.20
2017-07-04T17:22:33.340Z,12.60
2017-07-04T17:25:02.467Z,11.87
2017-07-04T17:27:30.900Z,12.90
2017-07-04T17:29:59.201Z,15.00
2017-07-04T17:32:27.499Z,12.37
2017-07-04T17:34:55.809Z,12.77
2017-07-04T17:37:24.145Z,12.90
2017-07-04T17:39:52.647Z,14.30
2017-07-04T17:42:20.988Z,12.50
2017-07-04T17:44:49.544Z,13.37
2017-07-04T17:47:18.381Z,12.23
2017-07-04T17:49:46.995Z,13.00
2017-07-04T17:52:15.540Z,11.30
2017-07-04T17:54:44.085Z,12.50
2017-07-04T17:57:12.657Z,12.53
2017-07-04T17:59:41.076Z,12.27
2017-07-04T18:02:09.973Z,13.60
2017-07-04T18:04:38.401Z,12.97
2017-07-04T18:07:06.753Z,13.37
2017-07-04T18:09:35.125Z,12.63
2017-07-04T18:12:03.490Z,13.07
2017-07-04T18:14:31.980Z,12.70
2017-07-04T18:17:00.274Z,14.13
2017-07-04T18:19:28.671Z,14.47
2017-07-04T18:21:57.034Z,12.73
2017-07-04T18:27:27.213Z,12.70
2017-07-04T18:29:55.835Z,11.90
2017-07-04T18:32:24.291Z,13.00
2017-07-04T18:34:52.596Z,12.47
2017-07-04T18:37:21.727Z,14.33
2017-07-04T18:39:50.027Z,14.37
2017-07-04T18:42:18.380Z,14.30
2017-07-04T18:44:46.842Z,14.37
2017-07-04T18:47:15.900Z,13.00
2017-07-04T18:49:44.295Z,14.27
2017-07-04T18:52:12.821Z,13.50
2017-07-04T18:54:41.208Z,12.70
2017-07-04T18:57:10.544Z,12.17
2017-07-04T18:59:39.027Z,11.67
2017-07-04T19:02:07.345Z,12.40
2017-07-04T19:04:35.856Z,11.73
2017-07-04T19:07:04.199Z,13.40
2017-07-04T19:09:33.287Z,12.93
2017-07-04T19:12:02.337Z,12.60
2017-07-04T19:14:30.704Z,12.10
2017-07-04T19:16:59.005Z,12.07
2017-07-04T19:19:27.704Z,10.13
2017-07-04T19:21:57.009Z,10.00
2017-07-04T19:24:26.160Z,11.17
2017-07-04T19:26:55.521Z,10.23
2017-07-04T19:29:24.310Z,9.47
2017-07-04T19:31:52.830Z,9.13
2017-07-04T19:34:21.571Z,9.90
2017-07-04T19:36:51.369Z,9.47
2017-07-04T19:39:20.684Z,10.87
2017-07-04T19:41:51.147Z,9.10
2017-07-04T19:44:21.044Z,9.70
2017-07-04T19:46:49.974Z,8.70
2017-07-04T19:49:21.336Z,9.33
2017-07-04T19:52:00.131Z,9.40
2017-07-04T19:54:29.893Z,8.30
2017-07-04T19:56:59.087Z,10.13
2017-07-04T19:59:28.390Z,9.87
2017-07-04T20:01:57.913Z,9.73
2017-07-04T20:04:28.821Z,10.00
2017-07-04T20:06:57.644Z,11.93
2017-07-04T20:09:26.452Z,9.97
2017-07-04T20:11:55.623Z,11.00
2017-07-04T20:14:26.059Z,9.13
2017-07-04T20:16:57.163Z,9.70
2017-07-04T20:19:27.894Z,10.27
2017-07-04T20:21:59.449Z,11.43
2017-07-04T20:24:32.828Z,10.30
2017-07-04T20:27:04.780Z,10.50
2017-07-04T20:29:35.927Z,12.17
2017-07-04T20:32:06.454Z,10.50
2017-07-04T20:34:37.634Z,11.03
2017-07-04T20:37:09.986Z,10.80
2017-07-04T20:39:40.908Z,10.53
2017-07-04T20:42:12.142Z,11.87
2017-07-04T20:44:43.905Z,9.73
2017-07-04T20:47:15.109Z,9.57
2017-07-04T20:49:46.663Z,10.37
2017-07-04T20:52:16.933Z,10.30
2017-07-04T20:54:48.945Z,9.57
2017-07-04T20:57:19.204Z,10.23
2017-07-04T20:59:50.569Z,10.80
2017-07-04T21:02:22.150Z,12.20
2017-07-04T21:04:55.006Z,11.63
2017-07-04T21:07:27.607Z,14.60
2017-07-04T21:09:58.688Z,13.90
2017-07-04T21:12:29.090Z,15.60
2017-07-04T21:14:59.906Z,15.50
2017-07-04T21:17:30.534Z,14.57
2017-07-04T21:19:59.642Z,14.27
2017-07-04T21:22:28.454Z,13.30
2017-07-04T21:24:56.905Z,12.60
2017-07-04T21:27:25.730Z,13.07
2017-07-04T21:29:55.026Z,11.10
2017-07-04T21:32:23.539Z,12.60
2017-07-04T21:34:51.862Z,11.47
2017-07-04T21:37:20.197Z,10.97
2017-07-04T21:39:49.263Z,10.87
2017-07-04T21:42:17.542Z,9.40
2017-07-04T21:44:46.016Z,9.20
2017-07-04T21:47:15.112Z,11.03
2017-07-04T21:49:44.403Z,9.53
2017-07-04T21:52:12.718Z,9.03
2017-07-04T21:54:41.016Z,9.20
2017-07-04T21:57:09.323Z,10.63
2017-07-04T21:59:37.822Z,9.57
2017-07-04T22:02:06.162Z,10.10
2017-07-04T22:04:34.483Z,10.33
2017-07-04T22:07:02.816Z,10.13
2017-07-04T22:09:31.210Z,9.17
2017-07-04T22:11:59.542Z,10.43
2017-07-04T22:14:27.846Z,10.37
2017-07-04T22:16:56.115Z,10.10
2017-07-04T22:19:24.423Z,9.20
2017-07-04T22:21:52.963Z,9.40
2017-07-04T22:24:21.292Z,10.43
2017-07-04T22:26:49.658Z,11.00
2017-07-04T22:29:17.981Z,10.80
2017-07-04T22:31:47.024Z,10.67
2017-07-04T22:34:15.533Z,9.90
2017-07-04T22:36:43.803Z,9.53
2017-07-04T22:39:12.240Z,9.67
2017-07-04T22:41:40.583Z,9.87
2017-07-04T22:44:08.846Z,10.30
2017-07-04T22:46:37.874Z,11.17
2017-07-04T22:49:06.193Z,10.60
2017-07-04T22:51:35.277Z,12.47
2017-07-04T22:54:03.535Z,10.43
2017-07-04T22:56:31.832Z,10.20
2017-07-04T22:59:00.130Z,10.70
2017-07-04T23:01:28.376Z,10.87
2017-07-04T23:03:56.869Z,9.73
2017-07-04T23:06:25.115Z,10.83
2017-07-04T23:08:53.372Z,10.70
2017-07-04T23:11:21.731Z,10.77
2017-07-04T23:13:50.780Z,10.93
2017-07-04T23:16:19.041Z,10.80
2017-07-04T23:18:47.468Z,10.90
2017-07-04T23:21:15.751Z,10.73
2017-07-04T23:23:44.771Z,10.00
2017-07-04T23:26:14.066Z,11.00
2017-07-04T23:28:42.332Z,10.63
2017-07-04T23:31:11.349Z,10.50
2017-07-04T23:33:39.657Z,10.70
2017-07-04T23:36:07.912Z,10.13
2017-07-04T23:38:36.199Z,11.00
2017-07-04T23:41:04.482Z,11.47
2017-07-04T23:43:32.752Z,10.87
2017-07-04T23:46:01.015Z,11.70
2017-07-04T23:48:29.305Z,10.77
2017-07-04T23:50:57.565Z,12.33
2017-07-04T23:53:25.889Z,10.77
2017-07-04T23:55:55.065Z,10.73
2017-07-04T23:58:23.319Z,11.00
